sensor_id;sensor_type;location;lat;lon;timestamp;P1;durP1;ratioP1;P2;durP2;ratioP2
56381;SDS011;50261;51.150;4.470;2023-03-01T00:01:09;10.40;;;7.68;;
56381;SDS011;50261;51.150;4.470;2023-03-01T00:03:34;12.25;;;7.28;;
56381;SDS011;50261;51.150;4.470;2023-03-01T00:06:01;13.20;;;8.38;;
56381;SDS011;50261;51.150;4.470;2023-03-01T00:08:27;11.15;;;7.38;;
56381;SDS011;50261;51.150;4.470;2023-03-01T00:11:53;11.02;;;7.13;;
56381;SDS011;50261;51.150;4.470;2023-03-01T00:13:48;13.50;;;7.35;;
56381;SDS011;50261;51.150;4.470;2023-03-01T00:16:16;10.55;;;7.60;;
56381;SDS011;50261;51.150;4.470;2023-03-01T00:18:42;10.60;;;7.63;;
56381;SDS011;50261;51.150;4.470;2023-03-01T00:21:08;11.13;;;6.72;;
56381;SDS011;50261;51.150;4.470;2023-03-01T00:23:34;15.32;;;7.60;;
56381;SDS011;50261;51.150;4.470;2023-03-01T00:26:00;11.57;;;8.25;;
56381;SDS011;50261;51.150;4.470;2023-03-01T00:28:29;10.43;;;8.02;;
56381;SDS011;50261;51.150;4.470;2023-03-01T00:30:54;13.85;;;7.72;;
56381;SDS011;50261;51.150;4.470;2023-03-01T00:33:20;11.27;;;7.88;;
56381;SDS011;50261;51.150;4.470;2023-03-01T00:35:46;12.57;;;7.40;;
56381;SDS011;50261;51.150;4.470;2023-03-01T00:38:12;10.57;;;7.85;;
56381;SDS011;50261;51.150;4.470;2023-03-01T00:40:37;10.45;;;7.32;;
56381;SDS011;50261;51.150;4.470;2023-03-01T00:43:03;11.95;;;7.53;;
56381;SDS011;50261;51.150;4.470;2023-03-01T00:45:29;11.10;;;7.40;;
56381;SDS011;50261;51.150;4.470;2023-03-01T00:47:57;9.63;;;6.55;;
56381;SDS011;50261;51.150;4.470;2023-03-01T00:50:23;9.25;;;6.30;;
56381;SDS011;50261;51.150;4.470;2023-03-01T00:52:53;13.13;;;7.38;;
56381;SDS011;50261;51.150;4.470;2023-03-01T00:55:19;11.75;;;7.68;;
56381;SDS011;50261;51.150;4.470;2023-03-01T00:57:45;9.63;;;7.35;;
56381;SDS011;50261;51.150;4.470;2023-03-01T01:00:11;10.07;;;7.10;;
56381;SDS011;50261;51.150;4.470;2023-03-01T01:02:37;12.27;;;7.93;;
56381;SDS011;50261;51.150;4.470;2023-03-01T01:05:03;11.13;;;7.75;;
56381;SDS011;50261;51.150;4.470;2023-03-01T01:07:28;11.30;;;8.00;;
56381;SDS011;50261;51.150;4.470;2023-03-01T01:09:54;8.60;;;7.53;;
56381;SDS011;50261;51.150;4.470;2023-03-01T01:12:20;12.32;;;7.93;;
56381;SDS011;50261;51.150;4.470;2023-03-01T01:14:46;13.02;;;8.35;;
56381;SDS011;50261;51.150;4.470;2023-03-01T01:17:11;10.45;;;7.75;;
56381;SDS011;50261;51.150;4.470;2023-03-01T01:19:37;11.75;;;7.40;;
56381;SDS011;50261;51.150;4.470;2023-03-01T01:22:03;12.60;;;7.47;;
56381;SDS011;50261;51.150;4.470;2023-03-01T01:24:29;9.55;;;7.10;;
56381;SDS011;50261;51.150;4.470;2023-03-01T01:26:55;10.75;;;7.05;;
56381;SDS011;50261;51.150;4.470;2023-03-01T01:29:21;10.85;;;7.53;;
56381;SDS011;50261;51.150;4.470;2023-03-01T01:31:47;10.95;;;7.10;;
56381;SDS011;50261;51.150;4.470;2023-03-01T01:34:17;9.70;;;6.70;;
56381;SDS011;50261;51.150;4.470;2023-03-01T01:36:44;10.52;;;7.00;;
56381;SDS011;50261;51.150;4.470;2023-03-01T01:39:09;8.70;;;6.35;;
56381;SDS011;50261;51.150;4.470;2023-03-01T01:41:39;11.75;;;6.95;;
56381;SDS011;50261;51.150;4.470;2023-03-01T01:46:45;10.43;;;7.15;;
56381;SDS011;50261;51.150;4.470;2023-03-01T01:51:57;9.63;;;7.07;;
56381;SDS011;50261;51.150;4.470;2023-03-01T01:54:49;8.52;;;6.82;;
56381;SDS011;50261;51.150;4.470;2023-03-01T01:57:13;8.13;;;6.00;;
56381;SDS011;50261;51.150;4.470;2023-03-01T01:59:39;9.30;;;6.60;;
56381;SDS011;50261;51.150;4.470;2023-03-01T02:02:06;10.20;;;7.00;;
56381;SDS011;50261;51.150;4.470;2023-03-01T02:04:32;8.02;;;6.80;;
56381;SDS011;50261;51.150;4.470;2023-03-01T02:07:03;8.60;;;6.22;;
56381;SDS011;50261;51.150;4.470;2023-03-01T02:09:30;9.90;;;6.70;;
56381;SDS011;50261;51.150;4.470;2023-03-01T02:11:57;9.82;;;6.78;;
56381;SDS011;50261;51.150;4.470;2023-03-01T02:14:22;8.93;;;6.72;;
56381;SDS011;50261;51.150;4.470;2023-03-01T02:16:48;9.02;;;6.63;;
56381;SDS011;50261;51.150;4.470;2023-03-01T02:19:18;9.70;;;6.68;;
56381;SDS011;50261;51.150;4.470;2023-03-01T02:21:49;8.82;;;6.68;;
56381;SDS011;50261;51.150;4.470;2023-03-01T02:24:21;11.40;;;6.72;;
56381;SDS011;50261;51.150;4.470;2023-03-01T02:26:50;7.45;;;6.35;;
56381;SDS011;50261;51.150;4.470;2023-03-01T02:29:16;8.35;;;6.80;;
56381;SDS011;50261;51.150;4.470;2023-03-01T02:31:42;9.70;;;6.68;;
56381;SDS011;50261;51.150;4.470;2023-03-01T02:34:14;12.23;;;6.78;;
56381;SDS011;50261;51.150;4.470;2023-03-01T02:36:43;10.10;;;7.20;;
56381;SDS011;50261;51.150;4.470;2023-03-01T02:39:11;8.75;;;6.32;;
56381;SDS011;50261;51.150;4.470;2023-03-01T02:41:41;8.65;;;6.60;;
56381;SDS011;50261;51.150;4.470;2023-03-01T02:44:07;9.55;;;6.55;;
56381;SDS011;50261;51.150;4.470;2023-03-01T02:46:41;9.48;;;6.50;;
56381;SDS011;50261;51.150;4.470;2023-03-01T02:51:52;9.63;;;6.97;;
56381;SDS011;50261;51.150;4.470;2023-03-01T02:54:36;10.45;;;6.72;;
56381;SDS011;50261;51.150;4.470;2023-03-01T02:57:04;8.27;;;6.38;;
56381;SDS011;50261;51.150;4.470;2023-03-01T02:59:31;10.07;;;6.65;;
56381;SDS011;50261;51.150;4.470;2023-03-01T03:02:07;9.00;;;6.63;;
56381;SDS011;50261;51.150;4.470;2023-03-01T03:04:33;9.95;;;6.72;;
56381;SDS011;50261;51.150;4.470;2023-03-01T03:06:59;8.00;;;6.15;;
56381;SDS011;50261;51.150;4.470;2023-03-01T03:09:25;8.93;;;6.28;;
56381;SDS011;50261;51.150;4.470;2023-03-01T03:11:51;12.70;;;6.63;;
56381;SDS011;50261;51.150;4.470;2023-03-01T03:14:16;9.15;;;6.50;;
56381;SDS011;50261;51.150;4.470;2023-03-01T03:16:48;7.68;;;5.63;;
56381;SDS011;50261;51.150;4.470;2023-03-01T03:19:15;10.50;;;6.45;;
56381;SDS011;50261;51.150;4.470;2023-03-01T03:21:41;10.13;;;6.53;;
56381;SDS011;50261;51.150;4.470;2023-03-01T03:24:07;8.13;;;5.95;;
56381;SDS011;50261;51.150;4.470;2023-03-01T03:26:33;13.02;;;6.55;;
56381;SDS011;50261;51.150;4.470;2023-03-01T03:28:59;8.15;;;6.38;;
56381;SDS011;50261;51.150;4.470;2023-03-01T03:31:25;8.75;;;7.00;;
56381;SDS011;50261;51.150;4.470;2023-03-01T03:33:50;8.18;;;6.22;;
56381;SDS011;50261;51.150;4.470;2023-03-01T03:36:17;10.82;;;6.15;;
56381;SDS011;50261;51.150;4.470;2023-03-01T03:38:44;10.10;;;6.43;;
56381;SDS011;50261;51.150;4.470;2023-03-01T03:41:11;7.28;;;6.18;;
56381;SDS011;50261;51.150;4.470;2023-03-01T03:43:38;9.95;;;6.35;;
56381;SDS011;50261;51.150;4.470;2023-03-01T03:46:04;9.48;;;5.97;;
56381;SDS011;50261;51.150;4.470;2023-03-01T03:48:33;8.82;;;6.05;;
56381;SDS011;50261;51.150;4.470;2023-03-01T03:50:59;6.78;;;5.47;;
56381;SDS011;50261;51.150;4.470;2023-03-01T03:53:25;9.70;;;6.30;;
56381;SDS011;50261;51.150;4.470;2023-03-01T03:55:51;7.63;;;5.88;;
56381;SDS011;50261;51.150;4.470;2023-03-01T03:58:18;11.55;;;5.90;;
56381;SDS011;50261;51.150;4.470;2023-03-01T04:00:45;7.53;;;5.18;;
56381;SDS011;50261;51.150;4.470;2023-03-01T04:03:12;7.32;;;5.85;;
56381;SDS011;50261;51.150;4.470;2023-03-01T04:05:39;10.13;;;5.85;;
56381;SDS011;50261;51.150;4.470;2023-03-01T04:08:05;7.15;;;5.47;;
56381;SDS011;50261;51.150;4.470;2023-03-01T04:10:35;9.27;;;5.85;;
56381;SDS011;50261;51.150;4.470;2023-03-01T04:13:03;8.13;;;5.75;;
56381;SDS011;50261;51.150;4.470;2023-03-01T04:15:28;8.88;;;6.40;;
56381;SDS011;50261;51.150;4.470;2023-03-01T04:17:54;9.18;;;6.30;;
56381;SDS011;50261;51.150;4.470;2023-03-01T04:20:21;8.02;;;5.63;;
56381;SDS011;50261;51.150;4.470;2023-03-01T04:22:51;8.75;;;6.15;;
56381;SDS011;50261;51.150;4.470;2023-03-01T04:25:17;11.38;;;6.20;;
56381;SDS011;50261;51.150;4.470;2023-03-01T04:27:43;9.30;;;5.80;;
56381;SDS011;50261;51.150;4.470;2023-03-01T04:30:09;9.85;;;6.70;;
56381;SDS011;50261;51.150;4.470;2023-03-01T04:32:35;8.30;;;6.05;;
56381;SDS011;50261;51.150;4.470;2023-03-01T04:35:01;7.88;;;6.25;;
56381;SDS011;50261;51.150;4.470;2023-03-01T04:37:27;9.40;;;6.63;;
56381;SDS011;50261;51.150;4.470;2023-03-01T04:39:52;9.23;;;5.70;;
56381;SDS011;50261;51.150;4.470;2023-03-01T04:42:18;7.97;;;6.00;;
56381;SDS011;50261;51.150;4.470;2023-03-01T04:44:45;10.73;;;5.90;;
56381;SDS011;50261;51.150;4.470;2023-03-01T04:47:11;8.48;;;6.05;;
56381;SDS011;50261;51.150;4.470;2023-03-01T04:49:37;8.10;;;6.00;;
56381;SDS011;50261;51.150;4.470;2023-03-01T04:52:03;7.97;;;5.40;;
56381;SDS011;50261;51.150;4.470;2023-03-01T04:54:32;7.30;;;5.88;;
56381;SDS011;50261;51.150;4.470;2023-03-01T04:56:58;10.63;;;6.05;;
56381;SDS011;50261;51.150;4.470;2023-03-01T04:59:24;7.65;;;5.95;;
56381;SDS011;50261;51.150;4.470;2023-03-01T05:01:50;8.07;;;6.07;;
56381;SDS011;50261;51.150;4.470;2023-03-01T05:04:16;8.48;;;6.18;;
56381;SDS011;50261;51.150;4.470;2023-03-01T05:06:42;8.25;;;5.95;;
56381;SDS011;50261;51.150;4.470;2023-03-01T05:09:08;6.85;;;5.63;;
56381;SDS011;50261;51.150;4.470;2023-03-01T05:11:33;7.18;;;5.90;;
56381;SDS011;50261;51.150;4.470;2023-03-01T05:14:01;9.20;;;6.10;;
56381;SDS011;50261;51.150;4.470;2023-03-01T05:16:27;8.88;;;6.55;;
56381;SDS011;50261;51.150;4.470;2023-03-01T05:18:53;8.02;;;5.95;;
56381;SDS011;50261;51.150;4.470;2023-03-01T05:21:20;7.40;;;5.63;;
56381;SDS011;50261;51.150;4.470;2023-03-01T05:23:46;12.75;;;6.05;;
56381;SDS011;50261;51.150;4.470;2023-03-01T05:26:12;9.63;;;6.18;;
56381;SDS011;50261;51.150;4.470;2023-03-01T05:28:38;8.48;;;6.90;;
56381;SDS011;50261;51.150;4.470;2023-03-01T05:31:05;9.70;;;6.53;;
56381;SDS011;50261;51.150;4.470;2023-03-01T05:33:38;8.35;;;5.82;;
56381;SDS011;50261;51.150;4.470;2023-03-01T05:36:04;8.60;;;6.13;;
56381;SDS011;50261;51.150;4.470;2023-03-01T05:38:30;7.43;;;5.97;;
56381;SDS011;50261;51.150;4.470;2023-03-01T05:40:56;8.32;;;6.28;;
56381;SDS011;50261;51.150;4.470;2023-03-01T05:43:22;9.52;;;5.93;;
56381;SDS011;50261;51.150;4.470;2023-03-01T05:45:48;10.15;;;6.28;;
56381;SDS011;50261;51.150;4.470;2023-03-01T05:48:14;9.73;;;6.40;;
56381;SDS011;50261;51.150;4.470;2023-03-01T05:50:40;9.82;;;6.22;;
56381;SDS011;50261;51.150;4.470;2023-03-01T05:53:09;12.40;;;6.35;;
56381;SDS011;50261;51.150;4.470;2023-03-01T05:55:35;11.05;;;6.40;;
56381;SDS011;50261;51.150;4.470;2023-03-01T05:58:02;9.15;;;6.25;;
56381;SDS011;50261;51.150;4.470;2023-03-01T06:00:29;9.60;;;7.05;;
56381;SDS011;50261;51.150;4.470;2023-03-01T06:02:55;8.27;;;6.38;;
56381;SDS011;50261;51.150;4.470;2023-03-01T06:05:21;10.32;;;6.63;;
56381;SDS011;50261;51.150;4.470;2023-03-01T06:07:47;9.25;;;6.35;;
56381;SDS011;50261;51.150;4.470;2023-03-01T06:10:12;12.55;;;7.07;;
56381;SDS011;50261;51.150;4.470;2023-03-01T06:12:39;11.20;;;7.05;;
56381;SDS011;50261;51.150;4.470;2023-03-01T06:15:05;10.40;;;6.47;;
56381;SDS011;50261;51.150;4.470;2023-03-01T06:17:32;11.95;;;6.55;;
56381;SDS011;50261;51.150;4.470;2023-03-01T06:20:06;11.57;;;6.57;;
56381;SDS011;50261;51.150;4.470;2023-03-01T06:22:32;12.32;;;6.72;;
56381;SDS011;50261;51.150;4.470;2023-03-01T06:24:58;9.68;;;6.63;;
56381;SDS011;50261;51.150;4.470;2023-03-01T06:27:23;10.57;;;6.60;;
56381;SDS011;50261;51.150;4.470;2023-03-01T06:29:49;13.90;;;7.07;;
56381;SDS011;50261;51.150;4.470;2023-03-01T06:32:14;12.50;;;6.45;;
56381;SDS011;50261;51.150;4.470;2023-03-01T06:34:40;7.80;;;6.60;;
56381;SDS011;50261;51.150;4.470;2023-03-01T06:37:06;10.43;;;6.75;;
56381;SDS011;50261;51.150;4.470;2023-03-01T06:39:31;11.05;;;6.70;;
56381;SDS011;50261;51.150;4.470;2023-03-01T06:41:57;11.95;;;10.73;;
56381;SDS011;50261;51.150;4.470;2023-03-01T06:44:23;10.73;;;7.03;;
56381;SDS011;50261;51.150;4.470;2023-03-01T06:46:49;9.18;;;6.50;;
56381;SDS011;50261;51.150;4.470;2023-03-01T06:49:14;10.57;;;6.57;;
56381;SDS011;50261;51.150;4.470;2023-03-01T06:51:43;12.40;;;6.57;;
56381;SDS011;50261;51.150;4.470;2023-03-01T06:54:09;11.52;;;6.80;;
56381;SDS011;50261;51.150;4.470;2023-03-01T06:56:34;14.93;;;6.70;;
56381;SDS011;50261;51.150;4.470;2023-03-01T06:59:00;8.50;;;6.93;;
56381;SDS011;50261;51.150;4.470;2023-03-01T07:01:26;10.48;;;6.93;;
56381;SDS011;50261;51.150;4.470;2023-03-01T07:03:51;11.77;;;7.03;;
56381;SDS011;50261;51.150;4.470;2023-03-01T07:06:17;11.20;;;7.20;;
56381;SDS011;50261;51.150;4.470;2023-03-01T07:08:42;8.43;;;6.47;;
56381;SDS011;50261;51.150;4.470;2023-03-01T07:11:08;12.02;;;6.70;;
56381;SDS011;50261;51.150;4.470;2023-03-01T07:13:34;11.90;;;6.68;;
56381;SDS011;50261;51.150;4.470;2023-03-01T07:15:59;10.80;;;6.88;;
56381;SDS011;50261;51.150;4.470;2023-03-01T07:18:25;17.42;;;6.80;;
56381;SDS011;50261;51.150;4.470;2023-03-01T07:20:50;9.80;;;7.20;;
56381;SDS011;50261;51.150;4.470;2023-03-01T07:23:16;11.52;;;7.07;;
56381;SDS011;50261;51.150;4.470;2023-03-01T07:25:41;11.15;;;7.20;;
56381;SDS011;50261;51.150;4.470;2023-03-01T07:28:07;8.90;;;6.80;;
56381;SDS011;50261;51.150;4.470;2023-03-01T07:30:33;9.20;;;6.03;;
56381;SDS011;50261;51.150;4.470;2023-03-01T07:32:58;11.15;;;7.35;;
56381;SDS011;50261;51.150;4.470;2023-03-01T07:35:30;12.77;;;7.47;;
56381;SDS011;50261;51.150;4.470;2023-03-01T07:37:56;10.85;;;6.95;;
56381;SDS011;50261;51.150;4.470;2023-03-01T07:40:21;12.50;;;7.28;;
56381;SDS011;50261;51.150;4.470;2023-03-01T07:42:47;13.30;;;7.28;;
56381;SDS011;50261;51.150;4.470;2023-03-01T07:45:13;11.68;;;7.53;;
56381;SDS011;50261;51.150;4.470;2023-03-01T07:47:39;9.77;;;6.88;;
56381;SDS011;50261;51.150;4.470;2023-03-01T07:50:05;8.80;;;6.72;;
56381;SDS011;50261;51.150;4.470;2023-03-01T07:52:31;9.25;;;6.90;;
56381;SDS011;50261;51.150;4.470;2023-03-01T07:54:57;11.95;;;7.70;;
56381;SDS011;50261;51.150;4.470;2023-03-01T07:57:22;9.57;;;7.28;;
56381;SDS011;50261;51.150;4.470;2023-03-01T07:59:48;12.00;;;8.95;;
56381;SDS011;50261;51.150;4.470;2023-03-01T08:02:14;10.20;;;7.00;;
56381;SDS011;50261;51.150;4.470;2023-03-01T08:04:40;10.95;;;7.80;;
56381;SDS011;50261;51.150;4.470;2023-03-01T08:07:06;13.23;;;7.30;;
56381;SDS011;50261;51.150;4.470;2023-03-01T08:09:34;11.45;;;7.30;;
56381;SDS011;50261;51.150;4.470;2023-03-01T08:11:59;12.27;;;7.72;;
56381;SDS011;50261;51.150;4.470;2023-03-01T08:14:25;12.80;;;7.75;;
56381;SDS011;50261;51.150;4.470;2023-03-01T08:16:51;12.52;;;7.38;;
56381;SDS011;50261;51.150;4.470;2023-03-01T08:19:17;9.95;;;6.70;;
56381;SDS011;50261;51.150;4.470;2023-03-01T08:21:43;12.90;;;7.60;;
56381;SDS011;50261;51.150;4.470;2023-03-01T08:24:08;12.73;;;7.60;;
56381;SDS011;50261;51.150;4.470;2023-03-01T08:26:35;11.25;;;7.55;;
56381;SDS011;50261;51.150;4.470;2023-03-01T08:29:01;10.52;;;7.93;;
56381;SDS011;50261;51.150;4.470;2023-03-01T08:31:29;11.38;;;8.00;;
56381;SDS011;50261;51.150;4.470;2023-03-01T08:33:56;11.80;;;7.35;;
56381;SDS011;50261;51.150;4.470;2023-03-01T08:36:26;14.02;;;7.90;;
56381;SDS011;50261;51.150;4.470;2023-03-01T08:38:52;9.48;;;7.03;;
56381;SDS011;50261;51.150;4.470;2023-03-01T08:41:18;11.15;;;7.85;;
56381;SDS011;50261;51.150;4.470;2023-03-01T08:43:44;10.43;;;7.35;;
56381;SDS011;50261;51.150;4.470;2023-03-01T08:46:10;9.90;;;7.15;;
56381;SDS011;50261;51.150;4.470;2023-03-01T08:48:36;13.30;;;7.55;;
56381;SDS011;50261;51.150;4.470;2023-03-01T08:51:12;14.50;;;8.52;;
56381;SDS011;50261;51.150;4.470;2023-03-01T08:53:38;11.80;;;7.55;;
56381;SDS011;50261;51.150;4.470;2023-03-01T08:56:04;12.82;;;7.95;;
56381;SDS011;50261;51.150;4.470;2023-03-01T08:58:30;10.48;;;7.70;;
56381;SDS011;50261;51.150;4.470;2023-03-01T09:00:57;10.05;;;6.78;;
56381;SDS011;50261;51.150;4.470;2023-03-01T09:03:23;9.20;;;7.18;;
56381;SDS011;50261;51.150;4.470;2023-03-01T09:05:49;10.55;;;6.75;;
56381;SDS011;50261;51.150;4.470;2023-03-01T09:08:16;11.35;;;7.72;;
56381;SDS011;50261;51.150;4.470;2023-03-01T09:10:42;10.25;;;7.15;;
56381;SDS011;50261;51.150;4.470;2023-03-01T09:13:08;11.25;;;6.97;;
56381;SDS011;50261;51.150;4.470;2023-03-01T09:15:33;10.65;;;7.10;;
56381;SDS011;50261;51.150;4.470;2023-03-01T09:17:59;8.20;;;6.65;;
56381;SDS011;50261;51.150;4.470;2023-03-01T09:20:25;10.55;;;7.20;;
56381;SDS011;50261;51.150;4.470;2023-03-01T09:22:51;10.23;;;7.18;;
56381;SDS011;50261;51.150;4.470;2023-03-01T09:25:16;10.90;;;7.03;;
56381;SDS011;50261;51.150;4.470;2023-03-01T09:27:42;10.23;;;7.03;;
56381;SDS011;50261;51.150;4.470;2023-03-01T09:30:08;12.38;;;7.57;;
56381;SDS011;50261;51.150;4.470;2023-03-01T09:32:34;10.90;;;7.10;;
56381;SDS011;50261;51.150;4.470;2023-03-01T09:34:59;9.68;;;6.35;;
56381;SDS011;50261;51.150;4.470;2023-03-01T09:37:34;13.05;;;6.93;;
56381;SDS011;50261;51.150;4.470;2023-03-01T09:40:00;10.20;;;6.72;;
56381;SDS011;50261;51.150;4.470;2023-03-01T09:42:26;9.30;;;6.97;;
56381;SDS011;50261;51.150;4.470;2023-03-01T09:44:54;11.23;;;7.38;;
56381;SDS011;50261;51.150;4.470;2023-03-01T09:47:26;9.95;;;6.70;;
56381;SDS011;50261;51.150;4.470;2023-03-01T09:50:04;10.57;;;6.65;;
56381;SDS011;50261;51.150;4.470;2023-03-01T09:52:46;10.30;;;6.55;;
56381;SDS011;50261;51.150;4.470;2023-03-01T09:55:17;11.95;;;7.97;;
56381;SDS011;50261;51.150;4.470;2023-03-01T10:00:31;9.35;;;7.43;;
56381;SDS011;50261;51.150;4.470;2023-03-01T10:03:22;12.93;;;7.47;;
56381;SDS011;50261;51.150;4.470;2023-03-01T10:05:53;9.93;;;7.68;;
56381;SDS011;50261;51.150;4.470;2023-03-01T10:10:56;9.52;;;6.43;;
56381;SDS011;50261;51.150;4.470;2023-03-01T10:13:27;9.48;;;7.20;;
56381;SDS011;50261;51.150;4.470;2023-03-01T10:18:36;10.55;;;7.18;;
56381;SDS011;50261;51.150;4.470;2023-03-01T10:21:09;11.45;;;6.65;;
56381;SDS011;50261;51.150;4.470;2023-03-01T10:23:38;9.90;;;6.85;;
56381;SDS011;50261;51.150;4.470;2023-03-01T10:28:54;10.27;;;7.27;;
56381;SDS011;50261;51.150;4.470;2023-03-01T10:31:23;10.85;;;6.80;;
56381;SDS011;50261;51.150;4.470;2023-03-01T10:33:53;9.70;;;6.88;;
56381;SDS011;50261;51.150;4.470;2023-03-01T10:36:20;9.68;;;6.40;;
56381;SDS011;50261;51.150;4.470;2023-03-01T10:38:50;8.73;;;5.93;;
56381;SDS011;50261;51.150;4.470;2023-03-01T10:41:19;11.38;;;7.00;;
56381;SDS011;50261;51.150;4.470;2023-03-01T10:43:49;10.38;;;6.78;;
56381;SDS011;50261;51.150;4.470;2023-03-01T10:51:33;9.30;;;6.47;;
56381;SDS011;50261;51.150;4.470;2023-03-01T10:53:58;7.50;;;5.50;;
56381;SDS011;50261;51.150;4.470;2023-03-01T10:56:24;11.13;;;6.25;;
56381;SDS011;50261;51.150;4.470;2023-03-01T11:03:55;6.28;;;5.45;;
56381;SDS011;50261;51.150;4.470;2023-03-01T11:06:27;7.60;;;5.95;;
56381;SDS011;50261;51.150;4.470;2023-03-01T11:08:53;7.43;;;5.93;;
56381;SDS011;50261;51.150;4.470;2023-03-01T11:11:23;9.05;;;6.20;;
56381;SDS011;50261;51.150;4.470;2023-03-01T11:13:54;6.20;;;5.60;;
56381;SDS011;50261;51.150;4.470;2023-03-01T11:16:27;7.32;;;5.50;;
56381;SDS011;50261;51.150;4.470;2023-03-01T11:18:57;7.03;;;4.85;;
56381;SDS011;50261;51.150;4.470;2023-03-01T11:21:24;6.50;;;5.70;;
56381;SDS011;50261;51.150;4.470;2023-03-01T11:23:50;10.02;;;6.30;;
56381;SDS011;50261;51.150;4.470;2023-03-01T11:26:16;6.47;;;5.18;;
56381;SDS011;50261;51.150;4.470;2023-03-01T11:28:42;6.85;;;5.70;;
56381;SDS011;50261;51.150;4.470;2023-03-01T11:31:10;6.80;;;5.32;;
56381;SDS011;50261;51.150;4.470;2023-03-01T11:33:44;8.07;;;5.90;;
56381;SDS011;50261;51.150;4.470;2023-03-01T11:38:37;6.45;;;5.75;;
56381;SDS011;50261;51.150;4.470;2023-03-01T11:41:20;5.75;;;5.20;;
56381;SDS011;50261;51.150;4.470;2023-03-01T11:43:54;8.10;;;5.57;;
56381;SDS011;50261;51.150;4.470;2023-03-01T11:54:13;7.18;;;5.75;;
56381;SDS011;50261;51.150;4.470;2023-03-01T11:56:45;6.30;;;5.70;;
56381;SDS011;50261;51.150;4.470;2023-03-01T12:05:05;6.78;;;5.50;;
56381;SDS011;50261;51.150;4.470;2023-03-01T12:24:48;7.90;;;5.50;;
56381;SDS011;50261;51.150;4.470;2023-03-01T12:27:25;6.60;;;5.72;;
56381;SDS011;50261;51.150;4.470;2023-03-01T12:30:04;10.27;;;6.28;;
56381;SDS011;50261;51.150;4.470;2023-03-01T12:32:51;7.40;;;5.82;;
56381;SDS011;50261;51.150;4.470;2023-03-01T12:40:20;6.45;;;5.85;;
56381;SDS011;50261;51.150;4.470;2023-03-01T12:50:21;6.13;;;5.53;;
56381;SDS011;50261;51.150;4.470;2023-03-01T12:52:49;6.70;;;6.00;;
56381;SDS011;50261;51.150;4.470;2023-03-01T12:55:19;8.27;;;5.55;;
56381;SDS011;50261;51.150;4.470;2023-03-01T12:57:52;5.93;;;5.33;;
56381;SDS011;50261;51.150;4.470;2023-03-01T13:00:27;6.78;;;5.30;;
56381;SDS011;50261;51.150;4.470;2023-03-01T13:02:56;6.45;;;5.40;;
56381;SDS011;50261;51.150;4.470;2023-03-01T13:05:31;7.10;;;6.15;;
56381;SDS011;50261;51.150;4.470;2023-03-01T13:08:08;7.70;;;6.45;;
56381;SDS011;50261;51.150;4.470;2023-03-01T13:10:40;7.93;;;6.20;;
56381;SDS011;50261;51.150;4.470;2023-03-01T13:15:43;8.18;;;6.55;;
56381;SDS011;50261;51.150;4.470;2023-03-01T13:26:03;7.07;;;5.65;;
56381;SDS011;50261;51.150;4.470;2023-03-01T13:46:49;6.65;;;5.70;;
56381;SDS011;50261;51.150;4.470;2023-03-01T13:49:19;6.13;;;5.32;;
56381;SDS011;50261;51.150;4.470;2023-03-01T13:51:46;7.22;;;5.85;;
56381;SDS011;50261;51.150;4.470;2023-03-01T13:54:12;6.65;;;5.38;;
56381;SDS011;50261;51.150;4.470;2023-03-01T13:56:38;7.85;;;5.63;;
56381;SDS011;50261;51.150;4.470;2023-03-01T13:59:05;5.95;;;5.35;;
56381;SDS011;50261;51.150;4.470;2023-03-01T14:01:37;5.43;;;4.88;;
56381;SDS011;50261;51.150;4.470;2023-03-01T14:04:03;7.43;;;5.32;;
56381;SDS011;50261;51.150;4.470;2023-03-01T14:06:40;7.25;;;5.43;;
56381;SDS011;50261;51.150;4.470;2023-03-01T14:09:19;7.25;;;6.05;;
56381;SDS011;50261;51.150;4.470;2023-03-01T14:12:05;8.35;;;5.68;;
56381;SDS011;50261;51.150;4.470;2023-03-01T14:19:41;7.28;;;5.75;;
56381;SDS011;50261;51.150;4.470;2023-03-01T14:27:18;6.03;;;5.22;;
56381;SDS011;50261;51.150;4.470;2023-03-01T14:29:44;7.70;;;5.45;;
56381;SDS011;50261;51.150;4.470;2023-03-01T14:32:20;9.10;;;6.20;;
56381;SDS011;50261;51.150;4.470;2023-03-01T14:34:46;6.82;;;5.82;;
56381;SDS011;50261;51.150;4.470;2023-03-01T14:37:19;6.03;;;5.43;;
56381;SDS011;50261;51.150;4.470;2023-03-01T14:39:45;6.57;;;5.90;;
56381;SDS011;50261;51.150;4.470;2023-03-01T14:42:11;8.95;;;6.00;;
56381;SDS011;50261;51.150;4.470;2023-03-01T14:44:37;8.27;;;5.75;;
56381;SDS011;50261;51.150;4.470;2023-03-01T14:47:02;7.13;;;5.90;;
56381;SDS011;50261;51.150;4.470;2023-03-01T14:49:30;6.93;;;6.00;;
56381;SDS011;50261;51.150;4.470;2023-03-01T14:51:59;9.23;;;5.70;;
56381;SDS011;50261;51.150;4.470;2023-03-01T14:54:40;7.38;;;5.80;;
56381;SDS011;50261;51.150;4.470;2023-03-01T14:57:12;6.75;;;5.70;;
56381;SDS011;50261;51.150;4.470;2023-03-01T14:59:38;9.13;;;6.20;;
56381;SDS011;50261;51.150;4.470;2023-03-01T15:02:03;9.43;;;6.03;;
56381;SDS011;50261;51.150;4.470;2023-03-01T15:04:29;10.63;;;7.03;;
56381;SDS011;50261;51.150;4.470;2023-03-01T15:06:56;12.27;;;7.53;;
56381;SDS011;50261;51.150;4.470;2023-03-01T15:11:55;8.37;;;6.13;;
56381;SDS011;50261;51.150;4.470;2023-03-01T15:17:14;8.38;;;6.38;;
56381;SDS011;50261;51.150;4.470;2023-03-01T15:19:45;7.20;;;5.78;;
56381;SDS011;50261;51.150;4.470;2023-03-01T15:22:14;7.57;;;6.20;;
56381;SDS011;50261;51.150;4.470;2023-03-01T15:24:41;8.02;;;5.82;;
56381;SDS011;50261;51.150;4.470;2023-03-01T15:27:14;7.45;;;6.45;;
56381;SDS011;50261;51.150;4.470;2023-03-01T15:29:40;9.23;;;5.75;;
56381;SDS011;50261;51.150;4.470;2023-03-01T15:32:24;8.40;;;6.30;;
56381;SDS011;50261;51.150;4.470;2023-03-01T15:34:50;6.65;;;5.85;;
56381;SDS011;50261;51.150;4.470;2023-03-01T15:39:59;8.10;;;6.05;;
56381;SDS011;50261;51.150;4.470;2023-03-01T15:45:07;10.40;;;6.40;;
56381;SDS011;50261;51.150;4.470;2023-03-01T15:47:33;8.32;;;6.32;;
56381;SDS011;50261;51.150;4.470;2023-03-01T15:50:00;11.30;;;7.03;;
56381;SDS011;50261;51.150;4.470;2023-03-01T15:52:39;10.07;;;7.05;;
56381;SDS011;50261;51.150;4.470;2023-03-01T15:55:06;8.70;;;7.15;;
56381;SDS011;50261;51.150;4.470;2023-03-01T15:57:32;9.70;;;6.93;;
56381;SDS011;50261;51.150;4.470;2023-03-01T15:59:57;8.00;;;6.40;;
56381;SDS011;50261;51.150;4.470;2023-03-01T16:02:23;8.40;;;7.43;;
56381;SDS011;50261;51.150;4.470;2023-03-01T16:04:49;11.32;;;7.13;;
56381;SDS011;50261;51.150;4.470;2023-03-01T16:07:15;8.18;;;6.45;;
56381;SDS011;50261;51.150;4.470;2023-03-01T16:09:41;9.00;;;6.68;;
56381;SDS011;50261;51.150;4.470;2023-03-01T16:12:17;7.72;;;6.40;;
56381;SDS011;50261;51.150;4.470;2023-03-01T16:14:45;10.00;;;6.75;;
56381;SDS011;50261;51.150;4.470;2023-03-01T16:17:11;7.60;;;6.40;;
56381;SDS011;50261;51.150;4.470;2023-03-01T16:19:37;8.02;;;6.35;;
56381;SDS011;50261;51.150;4.470;2023-03-01T16:22:03;7.85;;;6.22;;
56381;SDS011;50261;51.150;4.470;2023-03-01T16:24:29;9.88;;;6.15;;
56381;SDS011;50261;51.150;4.470;2023-03-01T16:26:55;8.43;;;5.85;;
56381;SDS011;50261;51.150;4.470;2023-03-01T16:29:20;8.75;;;5.72;;
56381;SDS011;50261;51.150;4.470;2023-03-01T16:31:46;10.32;;;6.55;;
56381;SDS011;50261;51.150;4.470;2023-03-01T16:34:12;9.37;;;6.67;;
56381;SDS011;50261;51.150;4.470;2023-03-01T16:36:38;9.25;;;5.93;;
56381;SDS011;50261;51.150;4.470;2023-03-01T16:39:03;7.80;;;6.03;;
56381;SDS011;50261;51.150;4.470;2023-03-01T16:41:29;9.52;;;6.05;;
56381;SDS011;50261;51.150;4.470;2023-03-01T16:43:56;9.55;;;6.13;;
56381;SDS011;50261;51.150;4.470;2023-03-01T16:46:23;8.95;;;6.60;;
56381;SDS011;50261;51.150;4.470;2023-03-01T16:48:49;8.93;;;6.40;;
56381;SDS011;50261;51.150;4.470;2023-03-01T16:51:14;8.05;;;6.38;;